Palo Pinto, TX (76484)

3:35 PM CST on December 07, 2016 (GMT -0600)
Western Hills | | Change Station

Elev 994 ft 32.81 °N, 98.15 °W | Updated 1 minute ago

Overcast
Overcast
48.6 °F
Feels Like 49 °F
N
0.0
Wind Variable Wind from East
Gusts 0.0 mph

Today
High -- | Low -- °F
--% Chance of Precip.
Yesterday
High -- | Low -- °F
Precip. -- in
Pressure 30.07 in
Visibility 10.0 miles
Clouds Overcast 2000 ft
Windchill 49 °F
Dew Point 42 °F
Humidity 78%
Rainfall in
Snow Depth Not available.
7:22 AM 5:26 PM
First Quarter, 56% visible
METAR KMWL 072053Z AUTO 01003KT 10SM OVC020 09/04 A3007 RMK AO2 SLP183 T00940044 55002
Pressure 30.07 in
Visibility 10.0 miles
Clouds Overcast 2000 ft
Windchill 49 °F
Dew Point 42 °F
Humidity 78%
Rainfall in
Snow Depth Not available.
7:22 AM 5:26 PM
First Quarter, 56% visible
METAR KMWL 072053Z AUTO 01003KT 10SM OVC020 09/04 A3007 RMK AO2 SLP183 T00940044 55002

10-Day Weather Forecast

Almanac

Astronomy

Dec. 07, 2016 Rise Set
Actual Time
Civil Twilight
Nautical Twilight
Astronomical Twilight
Moon
Length of Visible Light
Length of Day
Tomorrow will be .
, % of the Moon is Illuminated

Today's Extremes

State Highs State Lows

Community

WunderPhotos

Upload Photos

1,956,181 photos uploaded!

WunderBlog® & News

Nearby

Air Quality

  Air Quality AQ Index Pollutant
Not available.

Snow Depth

Station Depth Elevation

Earthquake Activity

City Distance Mag. Time & Date
Minimum magnitude displayed is 2.5.

Coastal Water Temperatures

Place Temperature

Stations

Nearby Weather Stations

Station Location Temp. Windchill Dew Point Humidity Wind Precip. Elev Updated Type
                   

Watches & Warnings

There are currently no watches in effect.